sensor_id;sensor_type;location;lat;lon;timestamp;pressure;altitude;pressure_sealevel;temperature;humidity
9969;BME280;5025;48.890;9.278;2022-08-02T00:01:40;98884.91;;;21.60;61.19
9969;BME280;5025;48.890;9.278;2022-08-02T00:04:05;98887.97;;;21.58;61.10
9969;BME280;5025;48.890;9.278;2022-08-02T00:06:31;98881.44;;;21.54;61.16
9969;BME280;5025;48.890;9.278;2022-08-02T00:08:56;98889.97;;;21.53;61.09
9969;BME280;5025;48.890;9.278;2022-08-02T00:11:21;98887.53;;;21.51;61.31
9969;BME280;5025;48.890;9.278;2022-08-02T00:13:47;98892.22;;;21.51;61.26
9969;BME280;5025;48.890;9.278;2022-08-02T00:16:12;98884.47;;;21.53;61.09
9969;BME280;5025;48.890;9.278;2022-08-02T00:18:38;98894.06;;;21.55;61.32
9969;BME280;5025;48.890;9.278;2022-08-02T00:21:03;98896.88;;;21.50;61.23
9969;BME280;5025;48.890;9.278;2022-08-02T00:23:29;98890.31;;;21.46;61.22
9969;BME280;5025;48.890;9.278;2022-08-02T00:25:54;98895.81;;;21.46;61.50
9969;BME280;5025;48.890;9.278;2022-08-02T00:28:20;98896.88;;;21.50;61.41
9969;BME280;5025;48.890;9.278;2022-08-02T00:30:45;98895.81;;;21.46;61.28
9969;BME280;5025;48.890;9.278;2022-08-02T00:33:10;98898.03;;;21.44;61.55
9969;BME280;5025;48.890;9.278;2022-08-02T00:35:36;98898.88;;;21.44;61.34
9969;BME280;5025;48.890;9.278;2022-08-02T00:38:02;98897.44;;;21.47;61.52
9969;BME280;5025;48.890;9.278;2022-08-02T00:43:04;98897.44;;;21.47;61.56
9969;BME280;5025;48.890;9.278;2022-08-02T00:45:35;98895.28;;;21.44;61.90
9969;BME280;5025;48.890;9.278;2022-08-02T00:48:03;98899.16;;;21.43;62.23
9969;BME280;5025;48.890;9.278;2022-08-02T00:50:29;98896.63;;;21.46;61.64
9969;BME280;5025;48.890;9.278;2022-08-02T00:52:55;98895.25;;;21.49;61.81
9969;BME280;5025;48.890;9.278;2022-08-02T00:55:21;98891.63;;;21.48;61.76
9969;BME280;5025;48.890;9.278;2022-08-02T00:57:47;98892.50;;;21.49;61.80
9969;BME280;5025;48.890;9.278;2022-08-02T01:00:13;98891.63;;;21.48;61.95
9969;BME280;5025;48.890;9.278;2022-08-02T01:02:39;98895.25;;;21.49;62.02
9969;BME280;5025;48.890;9.278;2022-08-02T01:05:05;98892.50;;;21.49;62.10
9969;BME280;5025;48.890;9.278;2022-08-02T01:07:30;98891.13;;;21.46;62.36
9969;BME280;5025;48.890;9.278;2022-08-02T01:09:56;98885.94;;;21.45;62.32
9969;BME280;5025;48.890;9.278;2022-08-02T01:12:21;98883.19;;;21.45;62.57
9969;BME280;5025;48.890;9.278;2022-08-02T01:14:49;98887.03;;;21.44;62.58
9969;BME280;5025;48.890;9.278;2022-08-02T01:28:15;98911.84;;;21.39;63.61
9969;BME280;5025;48.890;9.278;2022-08-02T01:30:54;98908.59;;;21.37;63.87
9969;BME280;5025;48.890;9.278;2022-08-02T01:33:23;98920.38;;;21.37;63.76
9969;BME280;5025;48.890;9.278;2022-08-02T01:35:51;98924.47;;;21.40;63.63
9969;BME280;5025;48.890;9.278;2022-08-02T01:38:28;98914.31;;;21.40;63.61
9969;BME280;5025;48.890;9.278;2022-08-02T01:40:56;98918.69;;;21.41;63.91
9969;BME280;5025;48.890;9.278;2022-08-02T01:43:24;98915.94;;;21.41;63.92
9969;BME280;5025;48.890;9.278;2022-08-02T01:45:53;98922.53;;;21.40;63.91
9969;BME280;5025;48.890;9.278;2022-08-02T01:48:20;98919.00;;;21.40;63.99
9969;BME280;5025;48.890;9.278;2022-08-02T01:50:48;98923.13;;;21.37;64.04
9969;BME280;5025;48.890;9.278;2022-08-02T01:53:18;98923.72;;;21.34;64.44
9969;BME280;5025;48.890;9.278;2022-08-02T01:55:50;98922.94;;;21.34;64.40
9969;BME280;5025;48.890;9.278;2022-08-02T01:58:19;98919.34;;;21.33;64.62
9969;BME280;5025;48.890;9.278;2022-08-02T02:00:47;98922.38;;;21.31;64.69
9969;BME280;5025;48.890;9.278;2022-08-02T02:03:19;98921.66;;;21.26;64.86
9969;BME280;5025;48.890;9.278;2022-08-02T02:05:47;98923.56;;;21.25;65.04
9969;BME280;5025;48.890;9.278;2022-08-02T02:08:15;98930.72;;;21.26;64.93
9969;BME280;5025;48.890;9.278;2022-08-02T02:13:15;98921.50;;;21.17;65.18
9969;BME280;5025;48.890;9.278;2022-08-02T02:15:46;98924.53;;;21.16;64.97
9969;BME280;5025;48.890;9.278;2022-08-02T02:18:17;98924.31;;;21.12;65.00
9969;BME280;5025;48.890;9.278;2022-08-02T02:20:43;98921.88;;;21.10;65.02
9969;BME280;5025;48.890;9.278;2022-08-02T02:23:09;98917.47;;;21.09;64.94
9969;BME280;5025;48.890;9.278;2022-08-02T02:25:35;98913.41;;;21.07;65.12
9969;BME280;5025;48.890;9.278;2022-08-02T02:28:04;98918.22;;;20.96;65.14
9969;BME280;5025;48.890;9.278;2022-08-02T02:30:32;98917.16;;;20.92;65.24
9969;BME280;5025;48.890;9.278;2022-08-02T02:33:00;98912.84;;;20.86;65.23
9969;BME280;5025;48.890;9.278;2022-08-02T02:35:31;98913.13;;;20.84;65.31
9969;BME280;5025;48.890;9.278;2022-08-02T02:38:00;98910.16;;;20.81;65.34
9969;BME280;5025;48.890;9.278;2022-08-02T02:40:28;98907.19;;;20.77;65.49
9969;BME280;5025;48.890;9.278;2022-08-02T02:42:55;98904.72;;;20.75;65.56
9969;BME280;5025;48.890;9.278;2022-08-02T02:45:21;98914.09;;;20.74;65.62
9969;BME280;5025;48.890;9.278;2022-08-02T02:47:48;98911.09;;;20.71;65.76
9969;BME280;5025;48.890;9.278;2022-08-02T02:50:15;98902.06;;;20.70;65.41
9969;BME280;5025;48.890;9.278;2022-08-02T02:52:41;98908.63;;;20.69;65.47
9969;BME280;5025;48.890;9.278;2022-08-02T02:55:08;98911.09;;;20.71;65.41
9969;BME280;5025;48.890;9.278;2022-08-02T02:57:35;98896.28;;;20.72;65.63
9969;BME280;5025;48.890;9.278;2022-08-02T03:00:07;98896.56;;;20.70;65.84
9969;BME280;5025;48.890;9.278;2022-08-02T03:02:33;98888.34;;;20.70;65.85
9969;BME280;5025;48.890;9.278;2022-08-02T03:05:01;98887.53;;;20.70;65.88
9969;BME280;5025;48.890;9.278;2022-08-02T03:07:28;98888.03;;;20.72;66.11
9969;BME280;5025;48.890;9.278;2022-08-02T03:09:53;98895.16;;;20.73;66.03
9969;BME280;5025;48.890;9.278;2022-08-02T03:12:19;98889.38;;;20.74;65.70
9969;BME280;5025;48.890;9.278;2022-08-02T03:14:44;98883.94;;;20.69;65.85
9969;BME280;5025;48.890;9.278;2022-08-02T03:17:10;98885.38;;;20.67;65.95
9969;BME280;5025;48.890;9.278;2022-08-02T03:19:35;98896.13;;;20.58;66.16
9969;BME280;5025;48.890;9.278;2022-08-02T03:22:01;98894.84;;;20.50;66.39
9969;BME280;5025;48.890;9.278;2022-08-02T03:24:26;98891.09;;;20.41;66.71
9969;BME280;5025;48.890;9.278;2022-08-02T03:26:51;98895.22;;;20.38;66.81
9969;BME280;5025;48.890;9.278;2022-08-02T03:29:17;98889.31;;;20.31;66.99
9969;BME280;5025;48.890;9.278;2022-08-02T03:31:44;98899.50;;;20.26;67.34
9969;BME280;5025;48.890;9.278;2022-08-02T03:34:10;98918.19;;;20.18;67.52
9969;BME280;5025;48.890;9.278;2022-08-02T03:36:36;98908.34;;;20.17;67.26
9969;BME280;5025;48.890;9.278;2022-08-02T03:39:03;98921.53;;;20.15;67.81
9969;BME280;5025;48.890;9.278;2022-08-02T03:41:30;98923.75;;;20.13;67.81
9969;BME280;5025;48.890;9.278;2022-08-02T03:43:57;98930.59;;;20.16;67.74
9969;BME280;5025;48.890;9.278;2022-08-02T03:46:23;98923.69;;;20.18;67.80
9969;BME280;5025;48.890;9.278;2022-08-02T03:48:50;98920.13;;;20.18;67.78
9969;BME280;5025;48.890;9.278;2022-08-02T03:51:16;98926.97;;;20.20;67.80
9969;BME280;5025;48.890;9.278;2022-08-02T03:53:42;98920.13;;;20.18;67.99
9969;BME280;5025;48.890;9.278;2022-08-02T03:56:08;98929.16;;;20.18;68.05
9969;BME280;5025;48.890;9.278;2022-08-02T03:58:34;98934.72;;;20.13;68.01
9969;BME280;5025;48.890;9.278;2022-08-02T04:00:59;98936.97;;;20.06;68.40
9969;BME280;5025;48.890;9.278;2022-08-02T04:03:25;98937.53;;;20.03;68.47
9969;BME280;5025;48.890;9.278;2022-08-02T04:05:51;98937.00;;;20.01;68.55
9969;BME280;5025;48.890;9.278;2022-08-02T04:08:17;98935.13;;;19.96;68.71
9969;BME280;5025;48.890;9.278;2022-08-02T04:10:42;98944.72;;;19.94;68.70
9969;BME280;5025;48.890;9.278;2022-08-02T04:13:36;98948.59;;;19.93;68.91
9969;BME280;5025;48.890;9.278;2022-08-02T04:16:10;98950.56;;;19.87;68.87
9969;BME280;5025;48.890;9.278;2022-08-02T04:18:45;98950.56;;;19.87;68.61
9969;BME280;5025;48.890;9.278;2022-08-02T04:21:16;98957.91;;;19.92;68.69
9969;BME280;5025;48.890;9.278;2022-08-02T04:23:44;98959.81;;;19.96;68.46
9969;BME280;5025;48.890;9.278;2022-08-02T04:26:11;98959.50;;;19.98;68.44
9969;BME280;5025;48.890;9.278;2022-08-02T04:28:37;98960.03;;;20.00;68.33
9969;BME280;5025;48.890;9.278;2022-08-02T04:31:03;98965.22;;;20.01;68.24
9969;BME280;5025;48.890;9.278;2022-08-02T04:33:29;98966.66;;;19.94;68.73
9969;BME280;5025;48.890;9.278;2022-08-02T04:35:55;98969.41;;;19.94;68.75
9969;BME280;5025;48.890;9.278;2022-08-02T04:38:23;98973.50;;;19.96;68.74
9969;BME280;5025;48.890;9.278;2022-08-02T04:40:54;98978.69;;;19.98;68.57
9969;BME280;5025;48.890;9.278;2022-08-02T04:43:20;98981.44;;;19.98;68.89
9969;BME280;5025;48.890;9.278;2022-08-02T04:45:48;98974.88;;;19.99;68.74
9969;BME280;5025;48.890;9.278;2022-08-02T04:48:15;98976.53;;;19.95;68.85
9969;BME280;5025;48.890;9.278;2022-08-02T04:50:41;98972.16;;;19.94;69.12
9969;BME280;5025;48.890;9.278;2022-08-02T04:53:06;98971.34;;;19.93;69.12
9969;BME280;5025;48.890;9.278;2022-08-02T04:55:31;98969.41;;;19.94;69.15
9969;BME280;5025;48.890;9.278;2022-08-02T04:57:57;98958.44;;;19.94;69.43
9969;BME280;5025;48.890;9.278;2022-08-02T05:00:25;98962.81;;;19.95;69.47
9969;BME280;5025;48.890;9.278;2022-08-02T05:02:50;98954.31;;;19.96;69.53
9969;BME280;5025;48.890;9.278;2022-08-02T05:05:16;98970.47;;;19.98;69.71
9969;BME280;5025;48.890;9.278;2022-08-02T05:07:42;98957.28;;;20.00;69.45
9969;BME280;5025;48.890;9.278;2022-08-02T05:10:08;98975.06;;;20.08;69.55
9969;BME280;5025;48.890;9.278;2022-08-02T05:12:33;98971.44;;;20.12;69.37
9969;BME280;5025;48.890;9.278;2022-08-02T05:14:59;98975.56;;;20.15;69.38
9969;BME280;5025;48.890;9.278;2022-08-02T05:17:24;98971.72;;;20.16;69.46
9969;BME280;5025;48.890;9.278;2022-08-02T05:19:49;98971.94;;;20.19;69.38
9969;BME280;5025;48.890;9.278;2022-08-02T05:22:15;98970.31;;;20.18;69.37
9969;BME280;5025;48.890;9.278;2022-08-02T05:24:40;98969.19;;;20.19;69.63
9969;BME280;5025;48.890;9.278;2022-08-02T05:27:05;98966.19;;;20.21;69.46
9969;BME280;5025;48.890;9.278;2022-08-02T05:29:31;98965.06;;;20.22;69.51
9969;BME280;5025;48.890;9.278;2022-08-02T05:31:56;98968.09;;;20.20;69.38
9969;BME280;5025;48.890;9.278;2022-08-02T05:34:21;98966.75;;;20.18;69.74
9969;BME280;5025;48.890;9.278;2022-08-02T05:36:47;98955.22;;;20.21;69.65
9969;BME280;5025;48.890;9.278;2022-08-02T05:39:12;98962.03;;;20.23;69.57
9969;BME280;5025;48.890;9.278;2022-08-02T05:41:37;98959.81;;;20.26;69.63
9969;BME280;5025;48.890;9.278;2022-08-02T05:44:03;98966.97;;;20.27;69.38
9969;BME280;5025;48.890;9.278;2022-08-02T05:46:28;98962.28;;;20.27;69.54
9969;BME280;5025;48.890;9.278;2022-08-02T05:48:54;98962.28;;;20.27;69.60
9969;BME280;5025;48.890;9.278;2022-08-02T05:51:22;98968.28;;;20.29;69.62
9969;BME280;5025;48.890;9.278;2022-08-02T05:54:14;98956.22;;;20.30;69.41
9969;BME280;5025;48.890;9.278;2022-08-02T05:56:47;98968.53;;;20.33;69.13
9969;BME280;5025;48.890;9.278;2022-08-02T06:01:56;98971.53;;;20.36;69.05
9969;BME280;5025;48.890;9.278;2022-08-02T06:04:47;98973.44;;;20.36;69.17
9969;BME280;5025;48.890;9.278;2022-08-02T06:07:18;98972.88;;;20.39;69.10
9969;BME280;5025;48.890;9.278;2022-08-02T06:09:48;98979.41;;;20.43;68.97
9969;BME280;5025;48.890;9.278;2022-08-02T06:12:15;98966.22;;;20.45;69.03
9969;BME280;5025;48.890;9.278;2022-08-02T06:14:41;98976.63;;;20.48;69.01
9969;BME280;5025;48.890;9.278;2022-08-02T06:17:08;98973.81;;;20.53;69.05
9969;BME280;5025;48.890;9.278;2022-08-02T06:19:36;98973.47;;;20.60;68.64
9969;BME280;5025;48.890;9.278;2022-08-02T06:22:03;98977.03;;;20.66;68.54
9969;BME280;5025;48.890;9.278;2022-08-02T06:24:42;98974.78;;;20.68;68.57
9969;BME280;5025;48.890;9.278;2022-08-02T06:27:11;98974.75;;;20.73;68.17
9969;BME280;5025;48.890;9.278;2022-08-02T06:29:38;98977.94;;;20.80;68.25
9969;BME280;5025;48.890;9.278;2022-08-02T06:32:04;98972.13;;;20.87;67.83
9969;BME280;5025;48.890;9.278;2022-08-02T06:34:35;98972.34;;;20.90;67.68
9969;BME280;5025;48.890;9.278;2022-08-02T06:37:22;98975.03;;;20.95;67.23
9969;BME280;5025;48.890;9.278;2022-08-02T06:39:58;98970.38;;;20.96;67.19
9969;BME280;5025;48.890;9.278;2022-08-02T06:42:31;98960.22;;;20.97;67.23
9969;BME280;5025;48.890;9.278;2022-08-02T06:44:59;98961.78;;;21.03;67.05
9969;BME280;5025;48.890;9.278;2022-08-02T06:47:25;98961.19;;;21.06;66.62
9969;BME280;5025;48.890;9.278;2022-08-02T06:49:50;98972.69;;;21.08;66.52
9969;BME280;5025;48.890;9.278;2022-08-02T06:52:16;98969.06;;;21.12;66.24
9969;BME280;5025;48.890;9.278;2022-08-02T06:54:41;98967.13;;;21.13;66.08
9969;BME280;5025;48.890;9.278;2022-08-02T06:57:07;98959.13;;;21.17;66.08
9969;BME280;5025;48.890;9.278;2022-08-02T06:59:34;98962.69;;;21.17;65.85
9969;BME280;5025;48.890;9.278;2022-08-02T07:01:59;98973.09;;;21.20;65.40
9969;BME280;5025;48.890;9.278;2022-08-02T07:04:26;98967.50;;;21.25;65.30
9969;BME280;5025;48.890;9.278;2022-08-02T07:06:52;98968.34;;;21.26;64.96
9969;BME280;5025;48.890;9.278;2022-08-02T07:09:17;98962.56;;;21.27;65.10
9969;BME280;5025;48.890;9.278;2022-08-02T07:11:42;98967.97;;;21.33;64.74
9969;BME280;5025;48.890;9.278;2022-08-02T07:14:08;98972.28;;;21.39;64.68
9969;BME280;5025;48.890;9.278;2022-08-02T07:16:33;98962.06;;;21.44;64.53
9969;BME280;5025;48.890;9.278;2022-08-02T07:18:58;98974.84;;;21.54;64.34
9969;BME280;5025;48.890;9.278;2022-08-02T07:21:24;98973.88;;;21.64;64.06
9969;BME280;5025;48.890;9.278;2022-08-02T07:23:49;98974.41;;;21.66;63.62
9969;BME280;5025;48.890;9.278;2022-08-02T07:26:15;98971.97;;;21.64;63.49
9969;BME280;5025;48.890;9.278;2022-08-02T07:28:40;98970.69;;;21.76;63.46
9969;BME280;5025;48.890;9.278;2022-08-02T07:31:05;98972.75;;;21.84;63.26
9969;BME280;5025;48.890;9.278;2022-08-02T07:33:30;98966.06;;;21.90;62.70
9969;BME280;5025;48.890;9.278;2022-08-02T07:35:56;98972.31;;;21.96;62.44
9969;BME280;5025;48.890;9.278;2022-08-02T07:38:22;98973.94;;;21.97;62.14
9969;BME280;5025;48.890;9.278;2022-08-02T07:40:49;98972.59;;;21.94;62.39
9969;BME280;5025;48.890;9.278;2022-08-02T07:43:14;98962.66;;;21.98;62.31
9969;BME280;5025;48.890;9.278;2022-08-02T07:45:39;98968.66;;;22.00;61.87
9969;BME280;5025;48.890;9.278;2022-08-02T07:48:05;98973.06;;;22.01;61.49
9969;BME280;5025;48.890;9.278;2022-08-02T07:50:32;98972.59;;;21.94;61.31
9969;BME280;5025;48.890;9.278;2022-08-02T07:52:58;98968.75;;;21.95;61.12
9969;BME280;5025;48.890;9.278;2022-08-02T07:55:23;98975.19;;;22.05;60.68
9969;BME280;5025;48.890;9.278;2022-08-02T07:57:49;98971.25;;;22.11;60.87
9969;BME280;5025;48.890;9.278;2022-08-02T08:00:15;98973.59;;;22.17;60.45
9969;BME280;5025;48.890;9.278;2022-08-02T08:02:41;98972.41;;;22.24;60.62
9969;BME280;5025;48.890;9.278;2022-08-02T08:05:07;98978.38;;;22.31;60.18
9969;BME280;5025;48.890;9.278;2022-08-02T08:07:33;98982.38;;;22.38;59.89
9969;BME280;5025;48.890;9.278;2022-08-02T08:09:58;98975.63;;;22.45;60.19
9969;BME280;5025;48.890;9.278;2022-08-02T08:12:25;98982.66;;;22.51;59.89
9969;BME280;5025;48.890;9.278;2022-08-02T08:14:50;98973.50;;;22.55;59.57
9969;BME280;5025;48.890;9.278;2022-08-02T08:17:15;98977.28;;;22.60;59.40
9969;BME280;5025;48.890;9.278;2022-08-02T08:19:41;98971.38;;;22.66;59.23
9969;BME280;5025;48.890;9.278;2022-08-02T08:22:06;98971.47;;;22.61;58.55
9969;BME280;5025;48.890;9.278;2022-08-02T08:24:32;98974.22;;;22.47;57.33
9969;BME280;5025;48.890;9.278;2022-08-02T08:26:57;98965.66;;;22.49;57.02
9969;BME280;5025;48.890;9.278;2022-08-02T08:29:22;98973.31;;;22.52;56.78
9969;BME280;5025;48.890;9.278;2022-08-02T08:31:48;98975.56;;;22.64;57.17
9969;BME280;5025;48.890;9.278;2022-08-02T08:34:14;98975.06;;;22.76;56.76
9969;BME280;5025;48.890;9.278;2022-08-02T08:36:40;98977.63;;;22.86;56.74
9969;BME280;5025;48.890;9.278;2022-08-02T08:39:06;98978.66;;;22.90;56.78
9969;BME280;5025;48.890;9.278;2022-08-02T08:41:31;98970.78;;;22.97;56.52
9969;BME280;5025;48.890;9.278;2022-08-02T08:43:56;98974.44;;;23.06;56.43
9969;BME280;5025;48.890;9.278;2022-08-02T08:46:31;98967.13;;;23.16;56.35
9969;BME280;5025;48.890;9.278;2022-08-02T08:49:22;98972.25;;;23.22;55.91
9969;BME280;5025;48.890;9.278;2022-08-02T08:51:44;98968.34;;;23.23;55.85
9969;BME280;5025;48.890;9.278;2022-08-02T08:54:14;98963.53;;;23.29;55.60
9969;BME280;5025;48.890;9.278;2022-08-02T08:56:41;98964.56;;;23.33;55.40
9969;BME280;5025;48.890;9.278;2022-08-02T08:59:06;98971.59;;;23.39;55.10
9969;BME280;5025;48.890;9.278;2022-08-02T09:01:32;98970.84;;;23.48;55.17
9969;BME280;5025;48.890;9.278;2022-08-02T09:03:58;98966.25;;;23.57;54.87
9969;BME280;5025;48.890;9.278;2022-08-02T09:06:24;98965.50;;;23.65;54.58
9969;BME280;5025;48.890;9.278;2022-08-02T09:08:49;98968.97;;;23.71;54.51
9969;BME280;5025;48.890;9.278;2022-08-02T09:11:16;98967.19;;;23.75;54.38
9969;BME280;5025;48.890;9.278;2022-08-02T09:13:53;98963.63;;;23.74;53.84
9969;BME280;5025;48.890;9.278;2022-08-02T09:16:32;98963.50;;;23.79;53.71
9969;BME280;5025;48.890;9.278;2022-08-02T09:18:59;98967.56;;;23.82;53.17
9969;BME280;5025;48.890;9.278;2022-08-02T09:21:36;98959.72;;;23.89;53.21
9969;BME280;5025;48.890;9.278;2022-08-02T09:24:02;98957.16;;;23.93;52.60
9969;BME280;5025;48.890;9.278;2022-08-02T09:26:38;98958.78;;;23.94;52.68
9969;BME280;5025;48.890;9.278;2022-08-02T09:29:05;98958.47;;;23.95;52.29
9969;BME280;5025;48.890;9.278;2022-08-02T09:31:32;98951.00;;;23.96;52.00
9969;BME280;5025;48.890;9.278;2022-08-02T09:33:59;98956.53;;;23.96;52.03
9969;BME280;5025;48.890;9.278;2022-08-02T09:36:26;98944.63;;;24.09;52.04
9969;BME280;5025;48.890;9.278;2022-08-02T09:38:56;98955.56;;;24.23;51.72
9969;BME280;5025;48.890;9.278;2022-08-02T09:41:26;98942.81;;;24.36;51.46
9969;BME280;5025;48.890;9.278;2022-08-02T09:43:53;98948.06;;;24.46;51.27
9969;BME280;5025;48.890;9.278;2022-08-02T09:46:21;98942.88;;;24.53;50.70
9969;BME280;5025;48.890;9.278;2022-08-02T09:48:48;98941.00;;;24.63;50.52
9969;BME280;5025;48.890;9.278;2022-08-02T09:51:16;98938.47;;;24.75;50.35
9969;BME280;5025;48.890;9.278;2022-08-02T09:53:42;98946.16;;;24.87;50.41
9969;BME280;5025;48.890;9.278;2022-08-02T09:56:08;98946.84;;;25.01;50.08
9969;BME280;5025;48.890;9.278;2022-08-02T09:58:37;98938.75;;;25.14;49.77
9969;BME280;5025;48.890;9.278;2022-08-02T10:01:02;98944.44;;;25.26;49.50
9969;BME280;5025;48.890;9.278;2022-08-02T10:03:28;98938.34;;;25.38;49.54
9969;BME280;5025;48.890;9.278;2022-08-02T10:05:54;98943.03;;;25.46;49.29
9969;BME280;5025;48.890;9.278;2022-08-02T10:08:22;98928.72;;;25.53;49.18
9969;BME280;5025;48.890;9.278;2022-08-02T10:10:48;98939.97;;;25.56;48.92
9969;BME280;5025;48.890;9.278;2022-08-02T10:13:34;98940.44;;;25.58;48.84
9969;BME280;5025;48.890;9.278;2022-08-02T10:16:00;98938.50;;;25.59;48.61
9969;BME280;5025;48.890;9.278;2022-08-02T10:18:30;98929.88;;;25.61;48.44
9969;BME280;5025;48.890;9.278;2022-08-02T10:20:56;98923.69;;;25.64;48.26
9969;BME280;5025;48.890;9.278;2022-08-02T10:23:25;98932.97;;;25.68;47.82
9969;BME280;5025;48.890;9.278;2022-08-02T10:25:52;98932.16;;;25.67;47.05
9969;BME280;5025;48.890;9.278;2022-08-02T10:28:25;98922.25;;;25.75;46.83
9969;BME280;5025;48.890;9.278;2022-08-02T10:30:54;98918.31;;;25.85;47.12
9969;BME280;5025;48.890;9.278;2022-08-02T10:33:21;98917.81;;;25.91;46.61
9969;BME280;5025;48.890;9.278;2022-08-02T10:35:51;98907.41;;;25.97;46.01
9969;BME280;5025;48.890;9.278;2022-08-02T10:38:18;98906.44;;;26.02;45.69
9969;BME280;5025;48.890;9.278;2022-08-02T10:40:44;98906.44;;;26.02;45.97
9969;BME280;5025;48.890;9.278;2022-08-02T10:43:11;98916.66;;;26.10;45.76
9969;BME280;5025;48.890;9.278;2022-08-02T10:45:37;98905.44;;;26.15;45.68
9969;BME280;5025;48.890;9.278;2022-08-02T10:48:07;98906.06;;;26.21;45.34
9969;BME280;5025;48.890;9.278;2022-08-02T10:53:30;98899.97;;;26.36;44.96
9969;BME280;5025;48.890;9.278;2022-08-02T10:56:00;98887.59;;;26.42;44.67
9969;BME280;5025;48.890;9.278;2022-08-02T10:58:28;98889.34;;;26.47;44.72
9969;BME280;5025;48.890;9.278;2022-08-02T11:00:56;98886.69;;;26.59;44.39
9969;BME280;5025;48.890;9.278;2022-08-02T11:06:03;98897.44;;;26.70;43.45
9969;BME280;5025;48.890;9.278;2022-08-02T11:08:29;98889.59;;;26.72;42.79
9969;BME280;5025;48.890;9.278;2022-08-02T11:11:00;98886.69;;;26.68;42.91
9969;BME280;5025;48.890;9.278;2022-08-02T11:13:26;98891.38;;;26.76;42.59
9969;BME280;5025;48.890;9.278;2022-08-02T11:16:01;98889.50;;;26.89;42.44
9969;BME280;5025;48.890;9.278;2022-08-02T11:21:22;98890.66;;;27.09;41.47
9969;BME280;5025;48.890;9.278;2022-08-02T11:23:50;98883.44;;;27.17;41.52
9969;BME280;5025;48.890;9.278;2022-08-02T11:28:53;98871.50;;;27.25;40.64
9969;BME280;5025;48.890;9.278;2022-08-02T11:31:19;98870.66;;;27.33;40.73
9969;BME280;5025;48.890;9.278;2022-08-02T11:33:48;98867.31;;;27.40;40.37
9969;BME280;5025;48.890;9.278;2022-08-02T11:36:14;98864.25;;;27.54;40.36
9969;BME280;5025;48.890;9.278;2022-08-02T11:38:40;98865.94;;;27.67;40.31
9969;BME280;5025;48.890;9.278;2022-08-02T11:41:05;98863.34;;;27.83;40.25
9969;BME280;5025;48.890;9.278;2022-08-02T11:43:31;98861.63;;;27.91;39.81
9969;BME280;5025;48.890;9.278;2022-08-02T11:45:56;98858.31;;;27.98;39.50
9969;BME280;5025;48.890;9.278;2022-08-02T11:51:09;98852.91;;;28.14;39.24
9969;BME280;5025;48.890;9.278;2022-08-02T11:56:10;98852.44;;;28.24;38.33
9969;BME280;5025;48.890;9.278;2022-08-02T11:58:37;98850.16;;;28.26;37.96
9969;BME280;5025;48.890;9.278;2022-08-02T12:01:03;98842.19;;;28.37;37.98
9969;BME280;5025;48.890;9.278;2022-08-02T12:03:36;98843.78;;;28.50;37.91
9969;BME280;5025;48.890;9.278;2022-08-02T12:06:03;98852.06;;;28.59;37.43
9969;BME280;5025;48.890;9.278;2022-08-02T12:08:30;98850.31;;;28.67;37.21
9969;BME280;5025;48.890;9.278;2022-08-02T12:10:55;98851.59;;;28.69;37.50
9969;BME280;5025;48.890;9.278;2022-08-02T12:13:20;98851.81;;;28.64;37.70
9969;BME280;5025;48.890;9.278;2022-08-02T12:15:46;98851.94;;;28.68;37.50
9969;BME280;5025;48.890;9.278;2022-08-02T12:18:20;98848.94;;;28.60;36.35
9969;BME280;5025;48.890;9.278;2022-08-02T12:21:25;98854.03;;;28.58;35.68
9969;BME280;5025;48.890;9.278;2022-08-02T12:23:51;98848.78;;;28.57;35.44
9969;BME280;5025;48.890;9.278;2022-08-02T12:26:16;98844.41;;;28.68;35.64
9969;BME280;5025;48.890;9.278;2022-08-02T12:28:42;98850.31;;;28.67;34.91
9969;BME280;5025;48.890;9.278;2022-08-02T12:31:10;98847.78;;;28.61;34.92
9969;BME280;5025;48.890;9.278;2022-08-02T12:33:52;98846.34;;;28.55;34.79
9969;BME280;5025;48.890;9.278;2022-08-02T12:38:53;98834.56;;;28.83;35.06
9969;BME280;5025;48.890;9.278;2022-08-02T12:41:19;98843.94;;;28.91;34.59
9969;BME280;5025;48.890;9.278;2022-08-02T12:43:45;98835.09;;;29.01;34.53
9969;BME280;5025;48.890;9.278;2022-08-02T12:46:15;98828.22;;;29.11;34.39
9969;BME280;5025;48.890;9.278;2022-08-02T12:48:41;98826.59;;;29.22;34.41
9969;BME280;5025;48.890;9.278;2022-08-02T12:53:48;98819.25;;;29.42;33.84
9969;BME280;5025;48.890;9.278;2022-08-02T12:56:32;98822.47;;;29.44;32.69
9969;BME280;5025;48.890;9.278;2022-08-02T12:58:58;98822.09;;;29.46;32.92
9969;BME280;5025;48.890;9.278;2022-08-02T13:01:25;98819.31;;;29.46;32.61
9969;BME280;5025;48.890;9.278;2022-08-02T13:03:52;98813.63;;;29.55;32.68
9969;BME280;5025;48.890;9.278;2022-08-02T13:06:19;98813.19;;;29.68;32.97
9969;BME280;5025;48.890;9.278;2022-08-02T13:08:45;98817.91;;;29.80;33.12
9969;BME280;5025;48.890;9.278;2022-08-02T13:11:10;98812.63;;;29.91;33.09
9969;BME280;5025;48.890;9.278;2022-08-02T13:13:36;98809.75;;;29.88;33.16
9969;BME280;5025;48.890;9.278;2022-08-02T13:16:01;98819.97;;;29.83;33.41
9969;BME280;5025;48.890;9.278;2022-08-02T13:18:27;98813.91;;;29.65;33.01
9969;BME280;5025;48.890;9.278;2022-08-02T13:20:52;98817.47;;;29.50;32.54
9969;BME280;5025;48.890;9.278;2022-08-02T13:23:18;98809.66;;;29.56;32.53
9969;BME280;5025;48.890;9.278;2022-08-02T13:25:43;98810.34;;;29.53;32.41
9969;BME280;5025;48.890;9.278;2022-08-02T13:28:09;98808.06;;;29.55;32.19
9969;BME280;5025;48.890;9.278;2022-08-02T13:30:35;98802.00;;;29.53;31.69
9969;BME280;5025;48.890;9.278;2022-08-02T13:33:00;98801.56;;;29.50;31.89
9969;BME280;5025;48.890;9.278;2022-08-02T13:35:26;98801.94;;;29.65;31.45
9969;BME280;5025;48.890;9.278;2022-08-02T13:37:51;98803.56;;;29.94;31.72
9969;BME280;5025;48.890;9.278;2022-08-02T13:40:16;98796.75;;;30.08;30.70
9969;BME280;5025;48.890;9.278;2022-08-02T13:42:42;98792.56;;;30.33;31.04
9969;BME280;5025;48.890;9.278;2022-08-02T13:45:08;98796.81;;;30.59;31.41
9969;BME280;5025;48.890;9.278;2022-08-02T13:47:33;98791.66;;;30.77;30.94
9969;BME280;5025;48.890;9.278;2022-08-02T13:49:59;98789.34;;;30.83;30.51
9969;BME280;5025;48.890;9.278;2022-08-02T13:52:24;98780.06;;;30.95;30.54
9969;BME280;5025;48.890;9.278;2022-08-02T13:54:49;98782.41;;;30.92;30.13
9969;BME280;5025;48.890;9.278;2022-08-02T13:57:15;98781.50;;;31.04;30.56
9969;BME280;5025;48.890;9.278;2022-08-02T13:59:40;98778.78;;;31.08;30.22
9969;BME280;5025;48.890;9.278;2022-08-02T14:02:06;98771.81;;;31.18;30.15
9969;BME280;5025;48.890;9.278;2022-08-02T14:04:31;98771.59;;;31.26;30.22